Terminal Aerodrome Forecast
Issued by NWS

Home | Current Version | Previous Version | Text Only | Print | Product List | Glossary On
Versions: 1 2 3 4 5 6 7 8 9 10 11 12 13
000
FTUS43 KICT 211451 AAA
TAFRSL
TAF AMD
KRSL 211451Z 2115/2212 22017G25KT P6SM SCT015 BKN035
     FM211630 33018G26KT P6SM SCT045 SCT100 BKN150
     FM220200 34009KT P6SM SCT200=

USA.gov is the U.S. government's official web portal to all federal, state and local government web resources and services.